Portada
METAR-TAF:

METAR-TAF

Aeroports :

Banjarmasin, Indonèsia

latitud: 03-26-32S, longitud: 114-45-45E, altitud: 20 m

Observació

L'informe es va fer fa 7 hores i 49 minuts, a les 18:00 UTC
Vent 5 kt del Est/Nord-Est
Temperatura 26°C
Humitat 94%
Pressió 1008 hPa
Visibilitat: 8000 m

METAR: WAOO 291800Z 06005KT 8000 NCD 26/25 Q1008

Hora: 08:49 (01:49 UTC)

Pronòstic

L'informe es va fer fa 2 hores i 49 minuts, a les 23:00 UTC
Pronòstic vàlid del 30 a les 00 UTC al 30 a les 24 UTC
Vent 6 kt del Nord-Est
Visibilitat 10 km o més
Núvols disperses a una alçada de 1800 ft
Temporalment
l' 30 a les 08 UTC al 30 a les 12 UTC
Visibilitat: 5000 m
Escasses núvols a una alçada de 1800 ft, Cumulonimbus.
tempesta, pluja

TAF: WAOO 292300Z 3000/3024 05006KT 9999 SCT018 TEMPO 3008/3012 5000 TSRA FEW018CB

Observacions i pronòstics meteorològics de més de 4000 aeroports (METAR i TAF).

Les estacions disponibles són els punts grocs i vermells al mapa.

Posi el ratolí al punt desitjat per veure el nom de l'estació.

Feu clic per veure les observacions i els pronòstics meteorològics.

Per canviar el mapa: feu clic els botons verds amb una creu de color negre per apropar; al botó verd amb un guió per allunyar la imatge; o en les fletxes verdes per a mapes adjacents.


METAR-TAF: